Terminal Aerodrome Forecast
Issued by NWS Charleston, WV

Current Version | Previous Version | Graphics & Text | Print | Product List | Glossary On
Versions: 1 2 3 4 5 6 7 8 9 10 11 12 13 14 15 16 17
000
FTUS41 KRLX 222300
TAFEKN
TAF
KEKN 222334Z 2300/2324 VRB03KT P6SM BKN040
     FM231100 VRB03KT P6SM BKN025
     FM231700 17004KT P6SM BKN040=

USA.gov is the U.S. government's official web portal to all federal, state and local government web resources and services.